Weather at Daniel Oduber Quiros International Airport

Public forecast

Using degrees Celsius for public forecast. Weather courtesy of forecast.io.

Current aviation weather report (METAR) for Daniel Oduber Quiros International Airport

Retrieved 2021/05/14 22:00 UTC (46 minutes ago):

MRLB 142200Z 08017KT 9999 FEW040 32/21 A2975

Aviation forecast (TAF) for Daniel Oduber Quiros International Airport

Retrieved 2021/05/14 18:00 UTC (5 hours ago):

TAF MRLB 141700Z 1418/1518 09014KT 9999 FEW040 TX34/1420Z TN21/1511Z TEMPO 1508/1514 27006KT